sensor_id;sensor_type;location;lat;lon;timestamp;P1;durP1;ratioP1;P2;durP2;ratioP2
66946;SDS011;53853;51.982;5.928;2024-01-27T00:01:06;15.15;;;5.30;;
66946;SDS011;53853;51.982;5.928;2024-01-27T00:03:36;13.15;;;5.07;;
66946;SDS011;53853;51.982;5.928;2024-01-27T00:06:06;11.00;;;4.72;;
66946;SDS011;53853;51.982;5.928;2024-01-27T00:08:36;13.18;;;5.07;;
66946;SDS011;53853;51.982;5.928;2024-01-27T00:11:06;11.38;;;4.40;;
66946;SDS011;53853;51.982;5.928;2024-01-27T00:13:36;7.40;;;3.80;;
66946;SDS011;53853;51.982;5.928;2024-01-27T00:16:08;11.98;;;4.90;;
66946;SDS011;53853;51.982;5.928;2024-01-27T00:18:38;13.20;;;4.72;;
66946;SDS011;53853;51.982;5.928;2024-01-27T00:21:08;18.67;;;6.65;;
66946;SDS011;53853;51.982;5.928;2024-01-27T00:23:38;12.02;;;5.20;;
66946;SDS011;53853;51.982;5.928;2024-01-27T00:26:08;13.18;;;5.47;;
66946;SDS011;53853;51.982;5.928;2024-01-27T00:28:38;10.45;;;4.85;;
66946;SDS011;53853;51.982;5.928;2024-01-27T00:31:10;15.23;;;5.30;;
66946;SDS011;53853;51.982;5.928;2024-01-27T00:33:40;15.80;;;5.20;;
66946;SDS011;53853;51.982;5.928;2024-01-27T00:36:10;14.50;;;5.18;;
66946;SDS011;53853;51.982;5.928;2024-01-27T00:38:40;10.35;;;5.18;;
66946;SDS011;53853;51.982;5.928;2024-01-27T00:41:15;19.42;;;6.82;;
66946;SDS011;53853;51.982;5.928;2024-01-27T00:43:45;13.05;;;5.03;;
66946;SDS011;53853;51.982;5.928;2024-01-27T00:46:17;13.30;;;5.15;;
66946;SDS011;53853;51.982;5.928;2024-01-27T00:48:47;10.70;;;4.25;;
66946;SDS011;53853;51.982;5.928;2024-01-27T00:51:17;10.18;;;4.75;;
66946;SDS011;53853;51.982;5.928;2024-01-27T00:53:47;13.00;;;5.05;;
66946;SDS011;53853;51.982;5.928;2024-01-27T00:56:17;11.35;;;5.35;;
66946;SDS011;53853;51.982;5.928;2024-01-27T00:58:46;11.70;;;4.97;;
66946;SDS011;53853;51.982;5.928;2024-01-27T01:01:19;13.32;;;4.60;;
66946;SDS011;53853;51.982;5.928;2024-01-27T01:03:49;16.85;;;5.15;;
66946;SDS011;53853;51.982;5.928;2024-01-27T01:06:19;13.48;;;5.65;;
66946;SDS011;53853;51.982;5.928;2024-01-27T01:08:48;10.52;;;4.68;;
66946;SDS011;53853;51.982;5.928;2024-01-27T01:11:16;9.82;;;4.15;;
66946;SDS011;53853;51.982;5.928;2024-01-27T01:13:46;13.13;;;4.68;;
66946;SDS011;53853;51.982;5.928;2024-01-27T01:16:16;11.95;;;5.63;;
66946;SDS011;53853;51.982;5.928;2024-01-27T01:18:48;14.88;;;4.75;;
66946;SDS011;53853;51.982;5.928;2024-01-27T01:21:18;10.25;;;4.72;;
66946;SDS011;53853;51.982;5.928;2024-01-27T01:23:48;12.10;;;4.40;;
66946;SDS011;53853;51.982;5.928;2024-01-27T01:26:18;11.63;;;4.13;;
66946;SDS011;53853;51.982;5.928;2024-01-27T01:28:47;8.60;;;4.55;;
66946;SDS011;53853;51.982;5.928;2024-01-27T01:31:20;10.32;;;4.00;;
66946;SDS011;53853;51.982;5.928;2024-01-27T01:33:50;10.23;;;5.20;;
66946;SDS011;53853;51.982;5.928;2024-01-27T01:36:20;9.32;;;3.97;;
66946;SDS011;53853;51.982;5.928;2024-01-27T01:38:50;10.40;;;4.55;;
66946;SDS011;53853;51.982;5.928;2024-01-27T01:41:20;16.33;;;4.55;;
66946;SDS011;53853;51.982;5.928;2024-01-27T01:43:49;8.38;;;4.35;;
66946;SDS011;53853;51.982;5.928;2024-01-27T01:46:22;9.57;;;4.53;;
66946;SDS011;53853;51.982;5.928;2024-01-27T01:48:52;12.55;;;5.28;;
66946;SDS011;53853;51.982;5.928;2024-01-27T01:51:23;19.73;;;4.57;;
66946;SDS011;53853;51.982;5.928;2024-01-27T01:53:54;10.77;;;4.78;;
66946;SDS011;53853;51.982;5.928;2024-01-27T01:56:27;8.48;;;3.90;;
66946;SDS011;53853;51.982;5.928;2024-01-27T01:58:57;16.15;;;5.95;;
66946;SDS011;53853;51.982;5.928;2024-01-27T02:01:31;7.93;;;4.00;;
66946;SDS011;53853;51.982;5.928;2024-01-27T02:04:01;8.07;;;4.18;;
66946;SDS011;53853;51.982;5.928;2024-01-27T02:06:32;11.73;;;4.63;;
66946;SDS011;53853;51.982;5.928;2024-01-27T02:09:02;14.60;;;5.15;;
66946;SDS011;53853;51.982;5.928;2024-01-27T02:11:32;11.18;;;4.40;;
66946;SDS011;53853;51.982;5.928;2024-01-27T02:14:02;14.70;;;5.03;;
66946;SDS011;53853;51.982;5.928;2024-01-27T02:16:35;10.52;;;3.75;;
66946;SDS011;53853;51.982;5.928;2024-01-27T02:19:05;10.75;;;3.97;;
66946;SDS011;53853;51.982;5.928;2024-01-27T02:21:34;10.35;;;3.92;;
66946;SDS011;53853;51.982;5.928;2024-01-27T02:26:41;10.45;;;4.38;;
66946;SDS011;53853;51.982;5.928;2024-01-27T02:29:11;10.93;;;4.15;;
66946;SDS011;53853;51.982;5.928;2024-01-27T02:31:41;8.65;;;3.88;;
66946;SDS011;53853;51.982;5.928;2024-01-27T02:34:11;14.32;;;5.22;;
66946;SDS011;53853;51.982;5.928;2024-01-27T02:36:41;9.98;;;4.22;;
66946;SDS011;53853;51.982;5.928;2024-01-27T02:39:14;10.13;;;4.07;;
66946;SDS011;53853;51.982;5.928;2024-01-27T02:41:44;8.60;;;3.58;;
66946;SDS011;53853;51.982;5.928;2024-01-27T02:44:14;12.55;;;4.55;;
66946;SDS011;53853;51.982;5.928;2024-01-27T02:46:43;11.98;;;4.35;;
66946;SDS011;53853;51.982;5.928;2024-01-27T02:49:13;7.43;;;3.72;;
66946;SDS011;53853;51.982;5.928;2024-01-27T02:51:43;12.20;;;4.05;;
66946;SDS011;53853;51.982;5.928;2024-01-27T02:54:16;9.35;;;4.35;;
66946;SDS011;53853;51.982;5.928;2024-01-27T02:56:46;11.88;;;5.03;;
66946;SDS011;53853;51.982;5.928;2024-01-27T02:59:15;9.77;;;3.85;;
66946;SDS011;53853;51.982;5.928;2024-01-27T03:01:45;8.85;;;4.45;;
66946;SDS011;53853;51.982;5.928;2024-01-27T03:04:15;11.10;;;3.72;;
66946;SDS011;53853;51.982;5.928;2024-01-27T03:06:45;10.48;;;4.18;;
66946;SDS011;53853;51.982;5.928;2024-01-27T03:09:17;15.15;;;4.88;;
66946;SDS011;53853;51.982;5.928;2024-01-27T03:11:47;11.02;;;4.35;;
66946;SDS011;53853;51.982;5.928;2024-01-27T03:14:17;12.38;;;4.68;;
66946;SDS011;53853;51.982;5.928;2024-01-27T03:16:47;11.95;;;4.13;;
66946;SDS011;53853;51.982;5.928;2024-01-27T03:19:17;13.93;;;4.25;;
66946;SDS011;53853;51.982;5.928;2024-01-27T03:21:47;10.80;;;5.47;;
66946;SDS011;53853;51.982;5.928;2024-01-27T03:24:19;9.18;;;4.10;;
66946;SDS011;53853;51.982;5.928;2024-01-27T03:26:49;11.80;;;4.35;;
66946;SDS011;53853;51.982;5.928;2024-01-27T03:29:19;7.57;;;3.95;;
66946;SDS011;53853;51.982;5.928;2024-01-27T03:31:49;8.10;;;4.03;;
66946;SDS011;53853;51.982;5.928;2024-01-27T03:34:18;9.13;;;4.13;;
66946;SDS011;53853;51.982;5.928;2024-01-27T03:36:50;10.63;;;4.40;;
66946;SDS011;53853;51.982;5.928;2024-01-27T03:39:23;8.70;;;4.18;;
66946;SDS011;53853;51.982;5.928;2024-01-27T03:41:53;8.98;;;3.70;;
66946;SDS011;53853;51.982;5.928;2024-01-27T03:44:22;12.05;;;4.22;;
66946;SDS011;53853;51.982;5.928;2024-01-27T03:46:52;10.55;;;4.20;;
66946;SDS011;53853;51.982;5.928;2024-01-27T03:49:22;9.55;;;4.00;;
66946;SDS011;53853;51.982;5.928;2024-01-27T03:51:52;8.77;;;3.97;;
66946;SDS011;53853;51.982;5.928;2024-01-27T03:54:24;15.50;;;5.25;;
66946;SDS011;53853;51.982;5.928;2024-01-27T03:56:54;16.52;;;4.93;;
66946;SDS011;53853;51.982;5.928;2024-01-27T03:59:24;12.32;;;4.95;;
66946;SDS011;53853;51.982;5.928;2024-01-27T04:01:54;16.13;;;4.57;;
66946;SDS011;53853;51.982;5.928;2024-01-27T04:04:24;11.27;;;4.00;;
66946;SDS011;53853;51.982;5.928;2024-01-27T04:06:53;13.82;;;5.38;;
66946;SDS011;53853;51.982;5.928;2024-01-27T04:09:26;12.52;;;4.22;;
66946;SDS011;53853;51.982;5.928;2024-01-27T04:11:56;9.95;;;4.50;;
66946;SDS011;53853;51.982;5.928;2024-01-27T04:14:26;11.32;;;5.18;;
66946;SDS011;53853;51.982;5.928;2024-01-27T04:16:55;11.70;;;4.30;;
66946;SDS011;53853;51.982;5.928;2024-01-27T04:19:25;9.88;;;4.07;;
66946;SDS011;53853;51.982;5.928;2024-01-27T04:21:55;12.18;;;4.82;;
66946;SDS011;53853;51.982;5.928;2024-01-27T04:24:28;16.95;;;4.97;;
66946;SDS011;53853;51.982;5.928;2024-01-27T04:26:58;11.32;;;5.15;;
66946;SDS011;53853;51.982;5.928;2024-01-27T04:29:28;11.73;;;4.45;;
66946;SDS011;53853;51.982;5.928;2024-01-27T04:31:58;12.10;;;4.95;;
66946;SDS011;53853;51.982;5.928;2024-01-27T04:34:28;12.18;;;4.50;;
66946;SDS011;53853;51.982;5.928;2024-01-27T04:36:58;11.23;;;5.55;;
66946;SDS011;53853;51.982;5.928;2024-01-27T04:39:30;11.68;;;4.65;;
66946;SDS011;53853;51.982;5.928;2024-01-27T04:42:00;12.10;;;4.97;;
66946;SDS011;53853;51.982;5.928;2024-01-27T04:44:32;9.02;;;4.20;;
66946;SDS011;53853;51.982;5.928;2024-01-27T04:47:01;13.30;;;6.43;;
66946;SDS011;53853;51.982;5.928;2024-01-27T04:49:31;11.43;;;5.53;;
66946;SDS011;53853;51.982;5.928;2024-01-27T04:52:01;13.73;;;5.88;;
66946;SDS011;53853;51.982;5.928;2024-01-27T04:54:34;12.38;;;6.05;;
66946;SDS011;53853;51.982;5.928;2024-01-27T04:57:04;9.88;;;5.13;;
66946;SDS011;53853;51.982;5.928;2024-01-27T04:59:34;11.13;;;5.28;;
66946;SDS011;53853;51.982;5.928;2024-01-27T05:02:04;11.25;;;6.07;;
66946;SDS011;53853;51.982;5.928;2024-01-27T05:04:34;10.77;;;6.50;;
66946;SDS011;53853;51.982;5.928;2024-01-27T05:07:06;17.67;;;7.25;;
66946;SDS011;53853;51.982;5.928;2024-01-27T05:09:38;19.85;;;8.07;;
66946;SDS011;53853;51.982;5.928;2024-01-27T05:12:08;10.02;;;6.72;;
66946;SDS011;53853;51.982;5.928;2024-01-27T05:14:42;11.63;;;6.18;;
66946;SDS011;53853;51.982;5.928;2024-01-27T05:17:12;10.45;;;6.18;;
66946;SDS011;53853;51.982;5.928;2024-01-27T05:19:43;13.10;;;7.82;;
66946;SDS011;53853;51.982;5.928;2024-01-27T05:22:13;13.68;;;7.57;;
66946;SDS011;53853;51.982;5.928;2024-01-27T05:24:46;19.35;;;8.68;;
66946;SDS011;53853;51.982;5.928;2024-01-27T05:27:16;17.63;;;7.70;;
66946;SDS011;53853;51.982;5.928;2024-01-27T05:29:45;13.07;;;7.55;;
66946;SDS011;53853;51.982;5.928;2024-01-27T05:32:15;13.70;;;7.15;;
66946;SDS011;53853;51.982;5.928;2024-01-27T05:34:45;12.18;;;6.35;;
66946;SDS011;53853;51.982;5.928;2024-01-27T05:37:15;16.30;;;7.40;;
66946;SDS011;53853;51.982;5.928;2024-01-27T05:39:47;11.05;;;7.70;;
66946;SDS011;53853;51.982;5.928;2024-01-27T05:42:17;15.40;;;7.50;;
66946;SDS011;53853;51.982;5.928;2024-01-27T05:44:47;13.45;;;6.97;;
66946;SDS011;53853;51.982;5.928;2024-01-27T05:47:17;14.98;;;6.43;;
66946;SDS011;53853;51.982;5.928;2024-01-27T05:49:46;11.07;;;5.72;;
66946;SDS011;53853;51.982;5.928;2024-01-27T05:52:17;12.93;;;6.32;;
66946;SDS011;53853;51.982;5.928;2024-01-27T05:54:49;9.93;;;6.22;;
66946;SDS011;53853;51.982;5.928;2024-01-27T05:57:19;10.90;;;5.97;;
66946;SDS011;53853;51.982;5.928;2024-01-27T05:59:49;12.95;;;7.15;;
66946;SDS011;53853;51.982;5.928;2024-01-27T06:02:19;16.02;;;7.00;;
66946;SDS011;53853;51.982;5.928;2024-01-27T06:05:04;16.77;;;7.20;;
66946;SDS011;53853;51.982;5.928;2024-01-27T06:07:39;14.13;;;6.82;;
66946;SDS011;53853;51.982;5.928;2024-01-27T06:10:14;15.30;;;7.13;;
66946;SDS011;53853;51.982;5.928;2024-01-27T06:12:44;11.38;;;7.00;;
66946;SDS011;53853;51.982;5.928;2024-01-27T06:15:14;11.57;;;7.00;;
66946;SDS011;53853;51.982;5.928;2024-01-27T06:17:44;10.80;;;7.30;;
66946;SDS011;53853;51.982;5.928;2024-01-27T06:20:14;10.70;;;6.78;;
66946;SDS011;53853;51.982;5.928;2024-01-27T06:22:44;14.02;;;6.90;;
66946;SDS011;53853;51.982;5.928;2024-01-27T06:25:17;10.00;;;7.03;;
66946;SDS011;53853;51.982;5.928;2024-01-27T06:27:47;8.82;;;5.55;;
66946;SDS011;53853;51.982;5.928;2024-01-27T06:30:17;11.48;;;6.35;;
66946;SDS011;53853;51.982;5.928;2024-01-27T06:32:47;10.77;;;6.30;;
66946;SDS011;53853;51.982;5.928;2024-01-27T06:35:17;15.32;;;7.30;;
66946;SDS011;53853;51.982;5.928;2024-01-27T06:37:47;12.45;;;6.97;;
66946;SDS011;53853;51.982;5.928;2024-01-27T06:40:19;14.98;;;7.47;;
66946;SDS011;53853;51.982;5.928;2024-01-27T06:42:49;12.70;;;7.50;;
66946;SDS011;53853;51.982;5.928;2024-01-27T06:45:19;13.98;;;6.55;;
66946;SDS011;53853;51.982;5.928;2024-01-27T06:47:49;9.98;;;6.60;;
66946;SDS011;53853;51.982;5.928;2024-01-27T06:50:19;11.70;;;7.18;;
66946;SDS011;53853;51.982;5.928;2024-01-27T06:52:48;13.13;;;6.90;;
66946;SDS011;53853;51.982;5.928;2024-01-27T06:55:21;14.95;;;7.53;;
66946;SDS011;53853;51.982;5.928;2024-01-27T06:57:51;16.83;;;8.75;;
66946;SDS011;53853;51.982;5.928;2024-01-27T07:00:21;14.07;;;6.93;;
66946;SDS011;53853;51.982;5.928;2024-01-27T07:02:51;12.60;;;7.18;;
66946;SDS011;53853;51.982;5.928;2024-01-27T07:05:21;17.42;;;7.70;;
66946;SDS011;53853;51.982;5.928;2024-01-27T07:07:51;13.65;;;7.68;;
66946;SDS011;53853;51.982;5.928;2024-01-27T07:10:24;12.23;;;7.57;;
66946;SDS011;53853;51.982;5.928;2024-01-27T07:12:54;11.00;;;7.25;;
66946;SDS011;53853;51.982;5.928;2024-01-27T07:15:23;15.13;;;7.60;;
66946;SDS011;53853;51.982;5.928;2024-01-27T07:17:53;14.38;;;7.82;;
66946;SDS011;53853;51.982;5.928;2024-01-27T07:20:23;11.70;;;7.05;;
66946;SDS011;53853;51.982;5.928;2024-01-27T07:22:54;15.10;;;7.88;;
66946;SDS011;53853;51.982;5.928;2024-01-27T07:25:27;12.45;;;7.28;;
66946;SDS011;53853;51.982;5.928;2024-01-27T07:27:57;14.45;;;8.20;;
66946;SDS011;53853;51.982;5.928;2024-01-27T07:30:26;11.90;;;7.30;;
66946;SDS011;53853;51.982;5.928;2024-01-27T07:32:56;10.18;;;7.43;;
66946;SDS011;53853;51.982;5.928;2024-01-27T07:35:26;10.02;;;6.68;;
66946;SDS011;53853;51.982;5.928;2024-01-27T07:37:57;14.13;;;7.97;;
66946;SDS011;53853;51.982;5.928;2024-01-27T07:40:30;15.90;;;8.85;;
66946;SDS011;53853;51.982;5.928;2024-01-27T07:42:59;14.80;;;7.30;;
66946;SDS011;53853;51.982;5.928;2024-01-27T07:45:29;12.23;;;6.72;;
66946;SDS011;53853;51.982;5.928;2024-01-27T07:47:59;8.23;;;6.53;;
66946;SDS011;53853;51.982;5.928;2024-01-27T07:50:29;11.35;;;6.72;;
66946;SDS011;53853;51.982;5.928;2024-01-27T07:52:59;15.90;;;9.30;;
66946;SDS011;53853;51.982;5.928;2024-01-27T07:55:32;12.40;;;7.25;;
66946;SDS011;53853;51.982;5.928;2024-01-27T07:58:02;15.48;;;7.20;;
66946;SDS011;53853;51.982;5.928;2024-01-27T08:00:32;12.93;;;7.10;;
66946;SDS011;53853;51.982;5.928;2024-01-27T08:03:02;15.88;;;9.68;;
66946;SDS011;53853;51.982;5.928;2024-01-27T08:05:32;13.40;;;8.68;;
66946;SDS011;53853;51.982;5.928;2024-01-27T08:08:02;19.55;;;9.48;;
66946;SDS011;53853;51.982;5.928;2024-01-27T08:10:35;11.65;;;8.27;;
66946;SDS011;53853;51.982;5.928;2024-01-27T08:13:05;11.02;;;8.25;;
66946;SDS011;53853;51.982;5.928;2024-01-27T08:15:35;13.55;;;7.68;;
66946;SDS011;53853;51.982;5.928;2024-01-27T08:18:05;15.63;;;8.35;;
66946;SDS011;53853;51.982;5.928;2024-01-27T08:20:35;10.73;;;7.30;;
66946;SDS011;53853;51.982;5.928;2024-01-27T08:23:05;10.00;;;7.32;;
66946;SDS011;53853;51.982;5.928;2024-01-27T08:25:37;17.35;;;9.55;;
66946;SDS011;53853;51.982;5.928;2024-01-27T08:28:10;13.48;;;8.65;;
66946;SDS011;53853;51.982;5.928;2024-01-27T08:30:40;12.77;;;8.32;;
66946;SDS011;53853;51.982;5.928;2024-01-27T08:33:09;15.93;;;7.38;;
66946;SDS011;53853;51.982;5.928;2024-01-27T08:35:39;13.35;;;8.05;;
66946;SDS011;53853;51.982;5.928;2024-01-27T08:38:09;13.07;;;7.65;;
66946;SDS011;53853;51.982;5.928;2024-01-27T08:40:42;17.80;;;8.93;;
66946;SDS011;53853;51.982;5.928;2024-01-27T08:43:12;14.07;;;9.20;;
66946;SDS011;53853;51.982;5.928;2024-01-27T08:45:42;13.90;;;8.93;;
66946;SDS011;53853;51.982;5.928;2024-01-27T08:48:11;13.13;;;8.35;;
66946;SDS011;53853;51.982;5.928;2024-01-27T08:50:42;14.75;;;8.57;;
66946;SDS011;53853;51.982;5.928;2024-01-27T08:53:12;16.13;;;8.18;;
66946;SDS011;53853;51.982;5.928;2024-01-27T08:55:44;16.17;;;9.30;;
66946;SDS011;53853;51.982;5.928;2024-01-27T08:58:14;11.40;;;7.35;;
66946;SDS011;53853;51.982;5.928;2024-01-27T09:00:44;13.75;;;8.45;;
66946;SDS011;53853;51.982;5.928;2024-01-27T09:03:13;11.60;;;6.60;;
66946;SDS011;53853;51.982;5.928;2024-01-27T09:05:44;13.80;;;8.05;;
66946;SDS011;53853;51.982;5.928;2024-01-27T09:08:14;11.98;;;7.95;;
66946;SDS011;53853;51.982;5.928;2024-01-27T09:10:47;15.40;;;9.02;;
66946;SDS011;53853;51.982;5.928;2024-01-27T09:13:17;15.02;;;8.35;;
66946;SDS011;53853;51.982;5.928;2024-01-27T09:15:46;15.02;;;9.13;;
66946;SDS011;53853;51.982;5.928;2024-01-27T09:18:17;13.80;;;8.10;;
66946;SDS011;53853;51.982;5.928;2024-01-27T09:20:48;14.02;;;8.90;;
66946;SDS011;53853;51.982;5.928;2024-01-27T09:23:17;21.20;;;11.20;;
66946;SDS011;53853;51.982;5.928;2024-01-27T09:25:50;14.45;;;8.98;;
66946;SDS011;53853;51.982;5.928;2024-01-27T09:28:20;10.20;;;7.43;;
66946;SDS011;53853;51.982;5.928;2024-01-27T09:30:50;16.42;;;9.70;;
66946;SDS011;53853;51.982;5.928;2024-01-27T09:33:19;10.40;;;8.30;;
66946;SDS011;53853;51.982;5.928;2024-01-27T09:35:49;12.40;;;8.60;;
66946;SDS011;53853;51.982;5.928;2024-01-27T09:38:19;16.40;;;8.50;;
66946;SDS011;53853;51.982;5.928;2024-01-27T09:40:52;13.13;;;8.38;;
66946;SDS011;53853;51.982;5.928;2024-01-27T09:43:22;11.48;;;8.18;;
66946;SDS011;53853;51.982;5.928;2024-01-27T09:48:26;13.25;;;8.80;;
66946;SDS011;53853;51.982;5.928;2024-01-27T09:50:58;15.23;;;8.60;;
66946;SDS011;53853;51.982;5.928;2024-01-27T09:53:28;18.17;;;8.68;;
66946;SDS011;53853;51.982;5.928;2024-01-27T09:56:01;11.88;;;7.85;;
66946;SDS011;53853;51.982;5.928;2024-01-27T09:58:32;12.20;;;8.80;;
66946;SDS011;53853;51.982;5.928;2024-01-27T10:01:02;16.60;;;8.98;;
66946;SDS011;53853;51.982;5.928;2024-01-27T10:03:33;10.55;;;8.02;;
66946;SDS011;53853;51.982;5.928;2024-01-27T10:06:04;14.02;;;7.90;;
66946;SDS011;53853;51.982;5.928;2024-01-27T10:11:10;15.13;;;8.82;;
66946;SDS011;53853;51.982;5.928;2024-01-27T10:13:43;11.48;;;7.80;;
66946;SDS011;53853;51.982;5.928;2024-01-27T10:16:13;9.23;;;6.88;;
66946;SDS011;53853;51.982;5.928;2024-01-27T10:18:43;11.30;;;6.32;;
66946;SDS011;53853;51.982;5.928;2024-01-27T10:21:13;12.27;;;6.07;;
66946;SDS011;53853;51.982;5.928;2024-01-27T10:23:44;20.17;;;9.20;;
66946;SDS011;53853;51.982;5.928;2024-01-27T10:26:16;14.43;;;10.38;;
66946;SDS011;53853;51.982;5.928;2024-01-27T10:28:51;17.30;;;10.20;;
66946;SDS011;53853;51.982;5.928;2024-01-27T10:31:25;16.13;;;8.43;;
66946;SDS011;53853;51.982;5.928;2024-01-27T10:33:56;12.93;;;8.25;;
66946;SDS011;53853;51.982;5.928;2024-01-27T10:36:37;11.43;;;7.20;;
66946;SDS011;53853;51.982;5.928;2024-01-27T10:39:19;10.52;;;6.90;;
66946;SDS011;53853;51.982;5.928;2024-01-27T10:41:53;12.63;;;8.20;;
66946;SDS011;53853;51.982;5.928;2024-01-27T10:44:23;19.05;;;11.02;;
66946;SDS011;53853;51.982;5.928;2024-01-27T10:46:54;15.95;;;9.98;;
66946;SDS011;53853;51.982;5.928;2024-01-27T10:49:30;18.75;;;10.85;;
66946;SDS011;53853;51.982;5.928;2024-01-27T10:52:03;15.00;;;9.20;;
66946;SDS011;53853;51.982;5.928;2024-01-27T10:54:39;13.38;;;8.85;;
66946;SDS011;53853;51.982;5.928;2024-01-27T10:57:13;17.02;;;8.52;;
66946;SDS011;53853;51.982;5.928;2024-01-27T11:02:15;10.32;;;7.03;;
66946;SDS011;53853;51.982;5.928;2024-01-27T11:04:47;19.67;;;10.02;;
66946;SDS011;53853;51.982;5.928;2024-01-27T11:07:18;21.42;;;10.48;;
66946;SDS011;53853;51.982;5.928;2024-01-27T11:09:49;20.27;;;9.40;;
66946;SDS011;53853;51.982;5.928;2024-01-27T11:12:22;26.38;;;9.55;;
66946;SDS011;53853;51.982;5.928;2024-01-27T11:17:24;17.60;;;9.82;;
66946;SDS011;53853;51.982;5.928;2024-01-27T11:19:55;17.55;;;8.98;;
66946;SDS011;53853;51.982;5.928;2024-01-27T11:22:26;18.20;;;8.88;;
66946;SDS011;53853;51.982;5.928;2024-01-27T11:25:05;17.77;;;8.07;;
66946;SDS011;53853;51.982;5.928;2024-01-27T11:27:39;16.25;;;10.13;;
66946;SDS011;53853;51.982;5.928;2024-01-27T11:30:23;21.58;;;10.35;;
66946;SDS011;53853;51.982;5.928;2024-01-27T11:32:55;19.15;;;8.82;;
66946;SDS011;53853;51.982;5.928;2024-01-27T11:35:25;16.88;;;9.10;;
66946;SDS011;53853;51.982;5.928;2024-01-27T11:37:55;18.98;;;9.15;;
66946;SDS011;53853;51.982;5.928;2024-01-27T11:40:25;19.42;;;9.02;;
66946;SDS011;53853;51.982;5.928;2024-01-27T11:42:59;17.73;;;8.30;;
66946;SDS011;53853;51.982;5.928;2024-01-27T11:47:59;15.77;;;8.80;;
66946;SDS011;53853;51.982;5.928;2024-01-27T11:50:29;12.98;;;8.95;;
66946;SDS011;53853;51.982;5.928;2024-01-27T11:52:59;16.45;;;8.00;;
66946;SDS011;53853;51.982;5.928;2024-01-27T11:55:30;14.18;;;7.00;;
66946;SDS011;53853;51.982;5.928;2024-01-27T11:58:02;16.60;;;8.75;;
66946;SDS011;53853;51.982;5.928;2024-01-27T12:00:33;13.85;;;8.23;;
66946;SDS011;53853;51.982;5.928;2024-01-27T12:03:03;11.43;;;7.05;;
66946;SDS011;53853;51.982;5.928;2024-01-27T12:05:33;18.80;;;9.57;;
66946;SDS011;53853;51.982;5.928;2024-01-27T12:08:03;14.23;;;8.15;;
66946;SDS011;53853;51.982;5.928;2024-01-27T12:10:36;15.02;;;6.85;;
66946;SDS011;53853;51.982;5.928;2024-01-27T12:13:08;20.02;;;9.02;;
66946;SDS011;53853;51.982;5.928;2024-01-27T12:15:39;11.80;;;7.03;;
66946;SDS011;53853;51.982;5.928;2024-01-27T12:18:09;16.55;;;6.53;;
66946;SDS011;53853;51.982;5.928;2024-01-27T12:20:39;16.98;;;7.55;;
66946;SDS011;53853;51.982;5.928;2024-01-27T12:23:09;15.13;;;7.70;;
66946;SDS011;53853;51.982;5.928;2024-01-27T12:25:39;16.83;;;8.57;;
66946;SDS011;53853;51.982;5.928;2024-01-27T12:28:11;19.98;;;7.47;;
66946;SDS011;53853;51.982;5.928;2024-01-27T12:30:42;18.33;;;7.38;;
66946;SDS011;53853;51.982;5.928;2024-01-27T12:33:12;17.35;;;7.32;;
66946;SDS011;53853;51.982;5.928;2024-01-27T12:35:45;15.43;;;7.28;;
66946;SDS011;53853;51.982;5.928;2024-01-27T12:38:16;19.67;;;6.97;;
66946;SDS011;53853;51.982;5.928;2024-01-27T12:40:46;18.40;;;6.68;;
66946;SDS011;53853;51.982;5.928;2024-01-27T12:43:19;11.45;;;6.22;;
66946;SDS011;53853;51.982;5.928;2024-01-27T12:45:49;12.23;;;5.63;;
66946;SDS011;53853;51.982;5.928;2024-01-27T12:48:19;18.10;;;7.40;;
66946;SDS011;53853;51.982;5.928;2024-01-27T12:50:48;19.55;;;6.95;;
66946;SDS011;53853;51.982;5.928;2024-01-27T12:53:18;15.80;;;7.03;;
66946;SDS011;53853;51.982;5.928;2024-01-27T12:55:48;10.65;;;5.70;;
66946;SDS011;53853;51.982;5.928;2024-01-27T12:58:21;16.05;;;6.38;;
66946;SDS011;53853;51.982;5.928;2024-01-27T13:00:51;11.73;;;5.45;;
66946;SDS011;53853;51.982;5.928;2024-01-27T13:03:21;10.88;;;5.57;;
66946;SDS011;53853;51.982;5.928;2024-01-27T13:05:50;12.93;;;5.40;;
66946;SDS011;53853;51.982;5.928;2024-01-27T13:08:22;13.10;;;6.32;;
66946;SDS011;53853;51.982;5.928;2024-01-27T13:10:52;11.80;;;5.57;;
66946;SDS011;53853;51.982;5.928;2024-01-27T13:13:24;14.15;;;5.95;;
66946;SDS011;53853;51.982;5.928;2024-01-27T13:15:54;13.27;;;6.32;;
66946;SDS011;53853;51.982;5.928;2024-01-27T13:18:24;19.33;;;6.82;;
66946;SDS011;53853;51.982;5.928;2024-01-27T13:20:54;14.63;;;6.18;;
66946;SDS011;53853;51.982;5.928;2024-01-27T13:23:24;14.77;;;5.97;;
66946;SDS011;53853;51.982;5.928;2024-01-27T13:25:54;13.43;;;5.78;;
66946;SDS011;53853;51.982;5.928;2024-01-27T13:28:26;13.88;;;6.00;;
66946;SDS011;53853;51.982;5.928;2024-01-27T13:30:56;13.40;;;5.05;;
66946;SDS011;53853;51.982;5.928;2024-01-27T13:33:26;13.88;;;6.15;;
66946;SDS011;53853;51.982;5.928;2024-01-27T13:35:58;11.65;;;4.85;;
66946;SDS011;53853;51.982;5.928;2024-01-27T13:38:28;10.50;;;5.40;;
66946;SDS011;53853;51.982;5.928;2024-01-27T13:40:58;9.93;;;4.97;;
66946;SDS011;53853;51.982;5.928;2024-01-27T13:43:30;13.07;;;4.60;;
66946;SDS011;53853;51.982;5.928;2024-01-27T13:46:00;7.30;;;4.18;;
66946;SDS011;53853;51.982;5.928;2024-01-27T13:48:30;7.15;;;3.58;;
66946;SDS011;53853;51.982;5.928;2024-01-27T13:51:00;9.98;;;4.50;;
66946;SDS011;53853;51.982;5.928;2024-01-27T13:53:30;12.05;;;4.80;;
66946;SDS011;53853;51.982;5.928;2024-01-27T13:56:00;16.45;;;5.65;;
66946;SDS011;53853;51.982;5.928;2024-01-27T13:58:32;9.65;;;4.63;;
66946;SDS011;53853;51.982;5.928;2024-01-27T14:01:02;13.43;;;5.45;;
66946;SDS011;53853;51.982;5.928;2024-01-27T14:03:32;11.38;;;5.93;;
66946;SDS011;53853;51.982;5.928;2024-01-27T14:06:03;15.13;;;5.32;;
66946;SDS011;53853;51.982;5.928;2024-01-27T14:08:33;14.68;;;5.63;;
66946;SDS011;53853;51.982;5.928;2024-01-27T14:11:03;11.38;;;4.65;;
66946;SDS011;53853;51.982;5.928;2024-01-27T14:13:35;18.15;;;6.32;;
66946;SDS011;53853;51.982;5.928;2024-01-27T14:16:06;9.63;;;5.22;;
66946;SDS011;53853;51.982;5.928;2024-01-27T14:18:36;10.65;;;4.18;;
66946;SDS011;53853;51.982;5.928;2024-01-27T14:21:06;15.02;;;5.95;;
66946;SDS011;53853;51.982;5.928;2024-01-27T14:23:36;13.85;;;5.78;;
66946;SDS011;53853;51.982;5.928;2024-01-27T14:26:06;13.70;;;5.65;;
66946;SDS011;53853;51.982;5.928;2024-01-27T14:28:43;14.32;;;5.88;;
66946;SDS011;53853;51.982;5.928;2024-01-27T14:31:15;11.35;;;5.10;;
66946;SDS011;53853;51.982;5.928;2024-01-27T14:33:45;9.85;;;3.83;;
66946;SDS011;53853;51.982;5.928;2024-01-27T14:36:14;14.40;;;6.22;;
66946;SDS011;53853;51.982;5.928;2024-01-27T14:38:46;11.38;;;4.60;;
66946;SDS011;53853;51.982;5.928;2024-01-27T14:41:16;12.48;;;5.63;;
66946;SDS011;53853;51.982;5.928;2024-01-27T14:43:48;9.60;;;5.03;;
66946;SDS011;53853;51.982;5.928;2024-01-27T14:46:18;6.82;;;3.70;;
66946;SDS011;53853;51.982;5.928;2024-01-27T14:48:48;9.27;;;4.03;;
66946;SDS011;53853;51.982;5.928;2024-01-27T14:51:19;7.40;;;3.25;;
66946;SDS011;53853;51.982;5.928;2024-01-27T14:53:49;10.40;;;4.25;;
66946;SDS011;53853;51.982;5.928;2024-01-27T14:56:19;12.23;;;5.45;;
66946;SDS011;53853;51.982;5.928;2024-01-27T14:58:51;11.80;;;5.55;;
66946;SDS011;53853;51.982;5.928;2024-01-27T15:01:22;10.95;;;4.85;;
66946;SDS011;53853;51.982;5.928;2024-01-27T15:03:53;10.68;;;5.65;;
66946;SDS011;53853;51.982;5.928;2024-01-27T15:06:22;13.52;;;4.47;;
66946;SDS011;53853;51.982;5.928;2024-01-27T15:08:52;12.43;;;4.47;;
66946;SDS011;53853;51.982;5.928;2024-01-27T15:11:22;11.45;;;5.10;;